Hauptseite
METAR-TAF:

METAR-TAF

Flughäfen :

Aigen im Ennstal, Österreich

Breite: 47-32N, Länge: 014-08E, Höhe: 638 m

METAR: fehlend

Zeit: 06:14 (04:14 UTC)

Prognose

Neuester Wetterbericht von vor 10 Stunden und 59 Minuten, um 17:15 UTC
Gültige Prognose vom 25 um 18 UTC bis 26 um 03 UTC
Wind 10 kt aus unterschiedlichen Richtungen
Sichtweite 10 km oder mehr
Leicht bewölkt in der Höhe von 6000 ft
Aufgelockert bewölkt in der Höhe von 12000 ft
Durchbrochene Bewölkung in der Höhe von 30000 ft
Übergehend zu
vom 25 um 18 UTC bis 25 um 20 UTC
Wind 3 kt aus unterschiedlichen Richtungen

TAF: LOXA 251715Z 2518/2603 VRB10KT 9999 FEW060 SCT120 BKN300 BECMG 2518/2520 VRB03KT

Wetterbeobachtungen und Prognosen von mehr als 4000 Flughäfen (METAR und TAF Bericht).

Die verfügbaren Stationen werden durch gelbe und rote Markierungen auf der Karte dargestellt.

Führen Sie die Maus auf sie, um den Namen der Station zu sehen.

Darauf klicken, um die Beobachtung von Wetterbeobachtungen und Prognosen zu sehen.

Um die Karte zu ändern : klicken Sie auf den grünen Tasten mit einem schwarzen Kreuz Zum Vergrößern, auf den grünen Button mit einem Gedankenstrich zu verkleinern, oder auf die grünen Pfeile für benachbarte Karten.


METAR-TAF: